メインページ
METAR-TAF:

METAR-TAF

空港 :

ロングイェールビーン, ノルウェー

緯度: 78-15N, 経度: 015-28E, 海抜: 2m

現時点の気象観測

当レポートは57分前の08:50(UTC)に作成
の風 15kt
気温 -11°C
湿度 51%
気圧 998 hPa
高度2000ftの雲はほとんどない
高度5200ftの千切れ雲あり

METAR: ENSB 250850Z 13007KT FEW020 BKN052 M11/M19 Q0998 WIND 1400FT 10015KT

時間: 10:47 (09:47 UTC)

予報

予報は25日の 06時(UTC)から 26日の 06時(UTC)まで有効
東/南東の風 15kt
視程10km以上
高度1500ftの雲はほとんどない
高度4000ftの千切れ雲あり
25日の 15時(UTC)から 25日の 18時(UTC)まで徐々に
東/南東の風 25kt
25日の 09時(UTC)から 25日の 24時(UTC)まで一時的に
視程: 4000m
高度1400ftの
小雪, 高い地吹雪
25日の 18時(UTC)から 26日の 06時(UTC)まで一時的に
の風 30kt、最大40ktの突風を伴う

TAF: ENSB 2506/2606 12015KT 9999 FEW015 BKN040 BECMG 2515/2518 12025KT TEMPO 2509/2524 4000 -SN BLSN VV014 TEMPO 2518/2606 10030G40KT

4,000以上の空港の気象観測と天気予報(METAR報とTAF報)

利用可能な観測所は地図上に黄色い丸と赤い丸で示す。

丸の上にカーソルを重ねると観測所名を参照できる。

次にクリックすると気象観測と天気予報を参照できる。

マップの切り替え:黒色「×」印の緑ボタンをクリックして拡大、「-」印の緑ボタンをクリックして縮小、緑色の三角印をクリックして隣りの地図に切り替え


METAR-TAF: